sensor_id;sensor_type;location;lat;lon;timestamp;pressure;altitude;pressure_sealevel;temperature;humidity
49585;BME280;35491;49.142;9.210;2022-09-20T06:28:15;100478.63;;;10.13;79.11
49585;BME280;35491;49.142;9.210;2022-09-20T06:29:25;100477.13;;;10.20;78.56
49585;BME280;35491;49.142;9.210;2022-09-20T06:30:32;100475.75;;;10.26;78.33
49585;BME280;35491;49.142;9.210;2022-09-20T06:33:37;100478.09;;;10.40;78.26
49585;BME280;35491;49.142;9.210;2022-09-20T06:34:44;100472.53;;;10.53;77.51
49585;BME280;35491;49.142;9.210;2022-09-20T06:35:51;100476.50;;;10.59;77.42
49585;BME280;35491;49.142;9.210;2022-09-20T06:36:59;100479.84;;;10.51;77.47
49585;BME280;35491;49.142;9.210;2022-09-20T06:38:41;100480.84;;;10.50;77.49
49585;BME280;35491;49.142;9.210;2022-09-20T06:41:36;100491.84;;;10.36;78.09
49585;BME280;35491;49.142;9.210;2022-09-20T06:42:53;100488.78;;;10.40;78.04
49585;BME280;35491;49.142;9.210;2022-09-20T06:47:25;100480.44;;;10.55;78.15
49585;BME280;35491;49.142;9.210;2022-09-20T06:50:48;100486.28;;;10.49;78.05
49585;BME280;35491;49.142;9.210;2022-09-20T07:18:02;100468.25;;;11.42;75.04
49585;BME280;35491;49.142;9.210;2022-09-20T07:19:16;100475.16;;;11.35;74.73
49585;BME280;35491;49.142;9.210;2022-09-20T07:20:20;100478.53;;;11.47;74.77
49585;BME280;35491;49.142;9.210;2022-09-20T07:21:21;100480.81;;;11.42;74.59
49585;BME280;35491;49.142;9.210;2022-09-20T07:22:25;100484.31;;;11.32;74.89
49585;BME280;35491;49.142;9.210;2022-09-20T07:23:29;100477.56;;;11.38;74.93
49585;BME280;35491;49.142;9.210;2022-09-20T07:24:33;100481.63;;;11.22;75.48
49585;BME280;35491;49.142;9.210;2022-09-20T07:25:40;100475.56;;;11.30;75.54
49585;BME280;35491;49.142;9.210;2022-09-20T07:27:14;100474.44;;;11.33;74.99
49585;BME280;35491;49.142;9.210;2022-09-20T07:43:05;100491.22;;;12.04;71.95
49585;BME280;35491;49.142;9.210;2022-09-20T08:05:39;100495.75;;;13.16;65.25
49585;BME280;35491;49.142;9.210;2022-09-20T08:06:44;100492.59;;;13.03;64.86
49585;BME280;35491;49.142;9.210;2022-09-20T08:07:57;100504.09;;;12.85;65.45
49585;BME280;35491;49.142;9.210;2022-09-20T08:09:10;100504.97;;;12.76;65.19
49585;BME280;35491;49.142;9.210;2022-09-20T08:16:21;100497.28;;;14.09;62.28
49585;BME280;35491;49.142;9.210;2022-09-20T08:19:05;100497.81;;;14.39;59.38
49585;BME280;35491;49.142;9.210;2022-09-20T08:20:36;100488.44;;;14.70;58.47
49585;BME280;35491;49.142;9.210;2022-09-20T08:23:32;100481.41;;;15.20;55.10
49585;BME280;35491;49.142;9.210;2022-09-20T08:24:36;100487.59;;;15.12;52.30
49585;BME280;35491;49.142;9.210;2022-09-20T08:25:41;100489.75;;;15.00;52.59
49585;BME280;35491;49.142;9.210;2022-09-20T08:26:42;100489.56;;;14.93;53.21
49585;BME280;35491;49.142;9.210;2022-09-20T08:27:50;100494.16;;;15.09;54.00
49585;BME280;35491;49.142;9.210;2022-09-20T08:29:00;100490.81;;;15.24;53.02
49585;BME280;35491;49.142;9.210;2022-09-20T08:30:23;100485.47;;;15.40;51.97
49585;BME280;35491;49.142;9.210;2022-09-20T08:31:25;100485.47;;;15.40;51.07
49585;BME280;35491;49.142;9.210;2022-09-20T08:32:38;100493.59;;;15.49;51.04
49585;BME280;35491;49.142;9.210;2022-09-20T08:33:52;100483.31;;;15.60;51.65
49585;BME280;35491;49.142;9.210;2022-09-20T08:34:55;100490.03;;;15.56;49.88
49585;BME280;35491;49.142;9.210;2022-09-20T08:36:01;100485.84;;;15.70;50.04
49585;BME280;35491;49.142;9.210;2022-09-20T08:37:03;100485.00;;;15.70;49.68
49585;BME280;35491;49.142;9.210;2022-09-20T08:39:59;100490.72;;;15.75;48.66
49585;BME280;35491;49.142;9.210;2022-09-20T08:41:13;100489.59;;;15.86;49.35
49585;BME280;35491;49.142;9.210;2022-09-20T08:43:53;100491.03;;;16.30;49.75
49585;BME280;35491;49.142;9.210;2022-09-20T08:45:13;100485.44;;;16.48;49.46
49585;BME280;35491;49.142;9.210;2022-09-20T08:46:25;100485.41;;;16.56;48.71
49585;BME280;35491;49.142;9.210;2022-09-20T08:48:04;100481.59;;;16.82;48.08
49585;BME280;35491;49.142;9.210;2022-09-20T08:49:15;100472.63;;;16.98;48.52
49585;BME280;35491;49.142;9.210;2022-09-20T08:50:34;100478.56;;;16.93;47.80
49585;BME280;35491;49.142;9.210;2022-09-20T08:51:47;100473.72;;;16.72;47.71
49585;BME280;35491;49.142;9.210;2022-09-20T08:53:18;100485.72;;;16.69;48.04
49585;BME280;35491;49.142;9.210;2022-09-20T08:54:33;100476.56;;;16.22;46.09
49585;BME280;35491;49.142;9.210;2022-09-20T08:55:45;100476.22;;;16.26;46.75
49585;BME280;35491;49.142;9.210;2022-09-20T09:03:19;100473.03;;;15.56;48.82
49585;BME280;35491;49.142;9.210;2022-09-20T09:04:31;100468.97;;;15.52;48.51
49585;BME280;35491;49.142;9.210;2022-09-20T09:07:41;100471.72;;;16.01;48.61
49585;BME280;35491;49.142;9.210;2022-09-20T09:08:52;100477.09;;;16.10;48.07
49585;BME280;35491;49.142;9.210;2022-09-20T09:18:36;100465.53;;;16.97;45.31
49585;BME280;35491;49.142;9.210;2022-09-20T09:19:42;100474.56;;;16.73;45.51
49585;BME280;35491;49.142;9.210;2022-09-20T09:20:51;100468.91;;;16.99;45.34
49585;BME280;35491;49.142;9.210;2022-09-20T09:22:19;100475.63;;;16.55;45.51
49585;BME280;35491;49.142;9.210;2022-09-20T09:23:25;100469.50;;;15.80;46.45
49585;BME280;35491;49.142;9.210;2022-09-20T09:27:26;100470.84;;;15.59;47.92
49585;BME280;35491;49.142;9.210;2022-09-20T09:28:28;100471.66;;;15.43;48.23
49585;BME280;35491;49.142;9.210;2022-09-20T09:29:37;100475.03;;;15.37;48.74
49585;BME280;35491;49.142;9.210;2022-09-20T09:30:50;100476.84;;;15.28;48.88
49585;BME280;35491;49.142;9.210;2022-09-20T09:31:52;100474.03;;;15.30;49.04
49585;BME280;35491;49.142;9.210;2022-09-20T09:34:26;100475.66;;;15.23;47.90
49585;BME280;35491;49.142;9.210;2022-09-20T09:35:45;100479.25;;;15.48;48.26
49585;BME280;35491;49.142;9.210;2022-09-20T09:37:17;100461.56;;;15.54;48.38
49585;BME280;35491;49.142;9.210;2022-09-20T09:38:38;100474.03;;;15.47;48.04
49585;BME280;35491;49.142;9.210;2022-09-20T09:41:21;100480.59;;;15.44;48.84
49585;BME280;35491;49.142;9.210;2022-09-20T09:42:28;100473.34;;;15.44;48.63
49585;BME280;35491;49.142;9.210;2022-09-20T09:43:45;100470.34;;;15.39;48.76
49585;BME280;35491;49.142;9.210;2022-09-20T09:45:09;100475.53;;;15.41;48.62
49585;BME280;35491;49.142;9.210;2022-09-20T09:46:41;100464.78;;;15.41;48.73
49585;BME280;35491;49.142;9.210;2022-09-20T09:48:16;100475.66;;;15.23;48.61
49585;BME280;35491;49.142;9.210;2022-09-20T09:51:14;100477.16;;;15.09;49.29
49585;BME280;35491;49.142;9.210;2022-09-20T09:53:07;100473.75;;;15.07;49.73
49585;BME280;35491;49.142;9.210;2022-09-20T09:54:13;100483.31;;;14.93;47.92
49585;BME280;35491;49.142;9.210;2022-09-20T09:55:22;100476.41;;;14.90;47.97
49585;BME280;35491;49.142;9.210;2022-09-20T09:56:36;100473.03;;;14.88;47.98
49585;BME280;35491;49.142;9.210;2022-09-20T09:57:45;100476.69;;;14.79;46.66
49585;BME280;35491;49.142;9.210;2022-09-20T09:59:35;100475.34;;;14.75;46.66
49585;BME280;35491;49.142;9.210;2022-09-20T10:00:53;100468.34;;;14.90;47.60
49585;BME280;35491;49.142;9.210;2022-09-20T10:02:06;100474.13;;;15.12;47.00
49585;BME280;35491;49.142;9.210;2022-09-20T10:06:20;100466.31;;;16.01;43.27
49585;BME280;35491;49.142;9.210;2022-09-20T10:07:31;100460.59;;;16.04;43.39
49585;BME280;35491;49.142;9.210;2022-09-20T10:14:31;100463.22;;;16.86;42.25
49585;BME280;35491;49.142;9.210;2022-09-20T10:33:34;100440.44;;;16.88;44.01
49585;BME280;35491;49.142;9.210;2022-09-20T10:34:54;100438.41;;;16.90;44.35
49585;BME280;35491;49.142;9.210;2022-09-20T10:36:16;100449.03;;;16.44;45.33
49585;BME280;35491;49.142;9.210;2022-09-20T10:39:12;100455.88;;;16.15;45.48
49585;BME280;35491;49.142;9.210;2022-09-20T10:40:27;100454.03;;;15.90;46.01
49585;BME280;35491;49.142;9.210;2022-09-20T10:42:06;100456.06;;;15.88;46.81
49585;BME280;35491;49.142;9.210;2022-09-20T10:46:22;100453.19;;;15.90;47.03
49585;BME280;35491;49.142;9.210;2022-09-20T10:47:31;100457.03;;;15.79;47.04
49585;BME280;35491;49.142;9.210;2022-09-20T10:48:44;100455.38;;;15.62;47.34
49585;BME280;35491;49.142;9.210;2022-09-20T10:49:49;100460.56;;;15.55;47.61
49585;BME280;35491;49.142;9.210;2022-09-20T10:51:07;100450.13;;;15.52;48.03
49585;BME280;35491;49.142;9.210;2022-09-20T10:54:03;100463.13;;;15.81;46.95
49585;BME280;35491;49.142;9.210;2022-09-20T10:59:18;100448.97;;;15.87;44.73
49585;BME280;35491;49.142;9.210;2022-09-20T11:02:22;100444.91;;;16.08;44.14
49585;BME280;35491;49.142;9.210;2022-09-20T11:03:46;100448.91;;;16.37;44.16
49585;BME280;35491;49.142;9.210;2022-09-20T11:06:13;100454.41;;;16.44;44.44
49585;BME280;35491;49.142;9.210;2022-09-20T11:07:19;100449.31;;;16.57;44.40
49585;BME280;35491;49.142;9.210;2022-09-20T11:08:25;100444.06;;;16.64;44.34
49585;BME280;35491;49.142;9.210;2022-09-20T11:09:31;100449.09;;;16.75;44.84
49585;BME280;35491;49.142;9.210;2022-09-20T11:10:35;100437.41;;;16.83;45.04
49585;BME280;35491;49.142;9.210;2022-09-20T11:11:41;100436.63;;;16.74;45.03
49585;BME280;35491;49.142;9.210;2022-09-20T11:12:46;100441.72;;;16.61;45.62
49585;BME280;35491;49.142;9.210;2022-09-20T11:13:56;100445.09;;;16.63;45.73
49585;BME280;35491;49.142;9.210;2022-09-20T11:15:03;100451.31;;;16.63;45.95
49585;BME280;35491;49.142;9.210;2022-09-20T11:16:08;100443.38;;;16.14;45.40
49585;BME280;35491;49.142;9.210;2022-09-20T11:17:16;100444.38;;;16.21;45.80
49585;BME280;35491;49.142;9.210;2022-09-20T11:18:20;100453.09;;;16.40;45.37
49585;BME280;35491;49.142;9.210;2022-09-20T11:19:28;100443.78;;;16.50;45.43
49585;BME280;35491;49.142;9.210;2022-09-20T11:20:35;100448.16;;;16.51;45.14
49585;BME280;35491;49.142;9.210;2022-09-20T11:21:37;100438.69;;;16.64;44.95
49585;BME280;35491;49.142;9.210;2022-09-20T11:22:43;100451.31;;;16.72;44.80
49585;BME280;35491;49.142;9.210;2022-09-20T11:23:50;100445.53;;;16.75;45.21
49585;BME280;35491;49.142;9.210;2022-09-20T11:24:57;100442.44;;;16.86;45.49
49585;BME280;35491;49.142;9.210;2022-09-20T11:26:06;100442.78;;;16.83;45.31
49585;BME280;35491;49.142;9.210;2022-09-20T11:27:14;100453.88;;;16.65;46.01
49585;BME280;35491;49.142;9.210;2022-09-20T11:28:22;100452.63;;;16.76;45.85
49585;BME280;35491;49.142;9.210;2022-09-20T11:29:26;100454.50;;;16.75;46.31
49585;BME280;35491;49.142;9.210;2022-09-20T11:30:32;100456.19;;;16.76;46.83
49585;BME280;35491;49.142;9.210;2022-09-20T11:31:34;100453.28;;;16.78;46.78
49585;BME280;35491;49.142;9.210;2022-09-20T11:32:39;100450.31;;;16.64;46.40
49585;BME280;35491;49.142;9.210;2022-09-20T11:33:43;100461.09;;;16.64;46.57
49585;BME280;35491;49.142;9.210;2022-09-20T11:34:52;100458.38;;;16.73;46.84
49585;BME280;35491;49.142;9.210;2022-09-20T11:35:57;100459.72;;;16.77;47.19
49585;BME280;35491;49.142;9.210;2022-09-20T11:37:01;100460.75;;;16.67;47.05
49585;BME280;35491;49.142;9.210;2022-09-20T11:38:08;100454.25;;;16.45;44.03
49585;BME280;35491;49.142;9.210;2022-09-20T11:39:12;100457.16;;;16.27;44.40
49585;BME280;35491;49.142;9.210;2022-09-20T11:40:19;100469.34;;;16.06;43.89
49585;BME280;35491;49.142;9.210;2022-09-20T11:41:25;100465.31;;;15.94;44.56
49585;BME280;35491;49.142;9.210;2022-09-20T11:42:27;100471.69;;;15.68;45.38
49585;BME280;35491;49.142;9.210;2022-09-20T11:43:33;100466.28;;;15.52;46.56
49585;BME280;35491;49.142;9.210;2022-09-20T11:44:39;100468.97;;;15.43;48.42
49585;BME280;35491;49.142;9.210;2022-09-20T11:45:43;100472.47;;;15.27;48.99
49585;BME280;35491;49.142;9.210;2022-09-20T11:46:49;100478.03;;;15.26;49.30
49585;BME280;35491;49.142;9.210;2022-09-20T11:47:53;100469.28;;;15.24;50.32
49585;BME280;35491;49.142;9.210;2022-09-20T11:49:00;100473.31;;;15.20;50.09
49585;BME280;35491;49.142;9.210;2022-09-20T11:50:10;100469.44;;;15.14;50.41
49585;BME280;35491;49.142;9.210;2022-09-20T11:51:41;100470.06;;;15.00;51.69
49585;BME280;35491;49.142;9.210;2022-09-20T11:52:52;100470.53;;;14.95;52.50
49585;BME280;35491;49.142;9.210;2022-09-20T11:54:04;100472.22;;;14.96;52.68
49585;BME280;35491;49.142;9.210;2022-09-20T11:56:34;100468.22;;;15.00;51.64
49585;BME280;35491;49.142;9.210;2022-09-20T11:57:37;100463.31;;;14.87;51.03
49585;BME280;35491;49.142;9.210;2022-09-20T11:58:45;100457.72;;;14.80;51.54
49585;BME280;35491;49.142;9.210;2022-09-20T11:59:51;100457.38;;;14.84;50.73
49585;BME280;35491;49.142;9.210;2022-09-20T12:00:53;100460.63;;;14.95;50.58
49585;BME280;35491;49.142;9.210;2022-09-20T12:01:58;100461.81;;;15.01;50.34
49585;BME280;35491;49.142;9.210;2022-09-20T12:03:01;100451.22;;;15.00;48.99
49585;BME280;35491;49.142;9.210;2022-09-20T12:04:09;100453.09;;;15.16;49.02
49585;BME280;35491;49.142;9.210;2022-09-20T12:05:26;100453.47;;;15.21;48.80
49585;BME280;35491;49.142;9.210;2022-09-20T12:06:33;100455.09;;;15.05;48.33
49585;BME280;35491;49.142;9.210;2022-09-20T12:07:39;100456.78;;;15.06;49.06
49585;BME280;35491;49.142;9.210;2022-09-20T12:08:40;100458.47;;;15.07;49.26
49585;BME280;35491;49.142;9.210;2022-09-20T12:09:45;100450.03;;;15.02;48.97
49585;BME280;35491;49.142;9.210;2022-09-20T12:10:54;100448.22;;;15.11;49.52
49585;BME280;35491;49.142;9.210;2022-09-20T12:11:58;100448.41;;;15.18;48.96
49585;BME280;35491;49.142;9.210;2022-09-20T12:13:02;100446.91;;;15.23;48.73
49585;BME280;35491;49.142;9.210;2022-09-20T12:14:07;100449.59;;;15.32;48.68
49585;BME280;35491;49.142;9.210;2022-09-20T12:15:29;100445.53;;;15.27;46.23
49585;BME280;35491;49.142;9.210;2022-09-20T12:16:34;100451.28;;;15.24;46.32
49585;BME280;35491;49.142;9.210;2022-09-20T12:19:01;100450.28;;;15.25;46.02
49585;BME280;35491;49.142;9.210;2022-09-20T12:21:25;100443.53;;;15.38;45.15
49585;BME280;35491;49.142;9.210;2022-09-20T12:22:29;100435.28;;;15.31;45.50
49585;BME280;35491;49.142;9.210;2022-09-20T12:24:49;100440.69;;;15.39;47.09
49585;BME280;35491;49.142;9.210;2022-09-20T12:28:48;100446.59;;;15.59;44.31
49585;BME280;35491;49.142;9.210;2022-09-20T12:29:51;100436.50;;;15.62;43.82
49585;BME280;35491;49.142;9.210;2022-09-20T12:32:28;100428.56;;;15.68;43.71
49585;BME280;35491;49.142;9.210;2022-09-20T12:33:53;100433.13;;;15.59;43.20
49585;BME280;35491;49.142;9.210;2022-09-20T12:34:58;100425.72;;;15.62;43.04
49585;BME280;35491;49.142;9.210;2022-09-20T12:36:11;100424.53;;;15.56;43.10
49585;BME280;35491;49.142;9.210;2022-09-20T12:37:19;100427.56;;;15.44;43.88
49585;BME280;35491;49.142;9.210;2022-09-20T12:38:26;100426.56;;;15.37;44.23
49585;BME280;35491;49.142;9.210;2022-09-20T12:39:32;100427.56;;;15.28;44.47
49585;BME280;35491;49.142;9.210;2022-09-20T12:40:36;100429.56;;;15.34;44.35
49585;BME280;35491;49.142;9.210;2022-09-20T12:41:57;100418.28;;;15.39;44.65
49585;BME280;35491;49.142;9.210;2022-09-20T12:43:01;100425.72;;;15.53;44.46
49585;BME280;35491;49.142;9.210;2022-09-20T12:44:04;100426.56;;;15.62;44.30
49585;BME280;35491;49.142;9.210;2022-09-20T12:45:21;100419.81;;;15.66;44.13
49585;BME280;35491;49.142;9.210;2022-09-20T12:46:25;100421.34;;;15.60;44.38
49585;BME280;35491;49.142;9.210;2022-09-20T12:47:49;100417.28;;;15.65;44.20
49585;BME280;35491;49.142;9.210;2022-09-20T12:49:09;100422.16;;;15.78;44.43
49585;BME280;35491;49.142;9.210;2022-09-20T12:50:34;100415.63;;;15.88;43.89
49585;BME280;35491;49.142;9.210;2022-09-20T12:51:50;100424.34;;;15.82;44.07
49585;BME280;35491;49.142;9.210;2022-09-20T12:53:11;100419.66;;;15.84;44.41
49585;BME280;35491;49.142;9.210;2022-09-20T12:54:16;100415.44;;;15.73;44.41
49585;BME280;35491;49.142;9.210;2022-09-20T12:55:31;100416.94;;;15.76;44.45
49585;BME280;35491;49.142;9.210;2022-09-20T12:56:38;100412.91;;;15.97;44.31
49585;BME280;35491;49.142;9.210;2022-09-20T12:57:46;100413.75;;;16.05;44.05
49585;BME280;35491;49.142;9.210;2022-09-20T12:58:54;100417.25;;;16.14;44.13
49585;BME280;35491;49.142;9.210;2022-09-20T13:00:00;100411.03;;;16.14;44.79
49585;BME280;35491;49.142;9.210;2022-09-20T13:03:47;100413.38;;;16.09;44.74
49585;BME280;35491;49.142;9.210;2022-09-20T13:04:52;100420.47;;;16.10;44.73
49585;BME280;35491;49.142;9.210;2022-09-20T13:07:28;100417.28;;;15.98;45.17
49585;BME280;35491;49.142;9.210;2022-09-20T13:08:37;100421.81;;;15.97;44.99
49585;BME280;35491;49.142;9.210;2022-09-20T13:09:43;100423.00;;;15.95;45.04
49585;BME280;35491;49.142;9.210;2022-09-20T13:10:46;100415.28;;;15.92;45.21
49585;BME280;35491;49.142;9.210;2022-09-20T13:11:52;100413.25;;;15.85;44.66
49585;BME280;35491;49.142;9.210;2022-09-20T13:12:56;100423.84;;;15.79;45.09
49585;BME280;35491;49.142;9.210;2022-09-20T13:14:02;100421.50;;;15.67;45.45
49585;BME280;35491;49.142;9.210;2022-09-20T13:15:10;100414.09;;;15.53;45.89
49585;BME280;35491;49.142;9.210;2022-09-20T13:16:17;100419.47;;;15.44;46.11
49585;BME280;35491;49.142;9.210;2022-09-20T13:17:23;100412.56;;;15.42;46.55
49585;BME280;35491;49.142;9.210;2022-09-20T13:18:26;100420.97;;;15.47;46.51
49585;BME280;35491;49.142;9.210;2022-09-20T13:19:31;100427.56;;;15.53;46.97
49585;BME280;35491;49.142;9.210;2022-09-20T13:20:33;100424.19;;;15.59;46.62
49585;BME280;35491;49.142;9.210;2022-09-20T13:21:41;100425.22;;;15.66;47.08
49585;BME280;35491;49.142;9.210;2022-09-20T13:22:48;100427.72;;;15.68;47.08
49585;BME280;35491;49.142;9.210;2022-09-20T13:23:52;100425.53;;;15.71;47.05
49585;BME280;35491;49.142;9.210;2022-09-20T13:24:57;100422.16;;;15.61;47.73
49585;BME280;35491;49.142;9.210;2022-09-20T13:25:59;100424.88;;;15.44;49.15
49585;BME280;35491;49.142;9.210;2022-09-20T13:27:06;100422.50;;;15.41;49.55
49585;BME280;35491;49.142;9.210;2022-09-20T13:28:09;100424.34;;;15.41;50.10
49585;BME280;35491;49.142;9.210;2022-09-20T13:29:21;100418.78;;;15.34;50.40
49585;BME280;35491;49.142;9.210;2022-09-20T13:30:28;100428.38;;;15.28;50.75
49585;BME280;35491;49.142;9.210;2022-09-20T13:31:32;100427.06;;;15.33;50.71
49585;BME280;35491;49.142;9.210;2022-09-20T13:32:36;100430.22;;;15.20;51.09
49585;BME280;35491;49.142;9.210;2022-09-20T13:33:41;100427.56;;;15.28;51.42
49585;BME280;35491;49.142;9.210;2022-09-20T13:34:45;100426.53;;;15.29;51.31
49585;BME280;35491;49.142;9.210;2022-09-20T13:35:50;100427.38;;;15.29;51.33
49585;BME280;35491;49.142;9.210;2022-09-20T13:36:55;100426.19;;;15.24;51.81
49585;BME280;35491;49.142;9.210;2022-09-20T13:38:01;100428.19;;;15.22;52.06
49585;BME280;35491;49.142;9.210;2022-09-20T13:39:07;100423.84;;;15.29;52.03
49585;BME280;35491;49.142;9.210;2022-09-20T13:40:15;100423.50;;;15.24;51.76
49585;BME280;35491;49.142;9.210;2022-09-20T13:41:16;100423.47;;;15.16;51.77
49585;BME280;35491;49.142;9.210;2022-09-20T13:42:20;100426.16;;;15.07;51.66
49585;BME280;35491;49.142;9.210;2022-09-20T13:43:25;100422.28;;;15.10;51.95
49585;BME280;35491;49.142;9.210;2022-09-20T13:44:31;100420.28;;;15.04;51.81
49585;BME280;35491;49.142;9.210;2022-09-20T13:45:34;100414.53;;;15.07;51.75
49585;BME280;35491;49.142;9.210;2022-09-20T13:46:42;100417.78;;;15.19;51.83
49585;BME280;35491;49.142;9.210;2022-09-20T13:47:47;100413.06;;;15.29;51.16
49585;BME280;35491;49.142;9.210;2022-09-20T13:48:52;100417.78;;;15.52;50.90
49585;BME280;35491;49.142;9.210;2022-09-20T13:49:59;100417.28;;;15.65;50.33
49585;BME280;35491;49.142;9.210;2022-09-20T13:51:13;100411.06;;;15.56;50.41
49585;BME280;35491;49.142;9.210;2022-09-20T13:52:22;100411.06;;;15.64;50.24
49585;BME280;35491;49.142;9.210;2022-09-20T13:53:24;100411.53;;;15.76;50.08
49585;BME280;35491;49.142;9.210;2022-09-20T13:54:32;100410.91;;;15.90;49.74
49585;BME280;35491;49.142;9.210;2022-09-20T13:55:34;100406.00;;;16.02;49.59
49585;BME280;35491;49.142;9.210;2022-09-20T13:56:38;100414.06;;;16.02;48.78
49585;BME280;35491;49.142;9.210;2022-09-20T13:57:40;100409.69;;;16.01;48.32
49585;BME280;35491;49.142;9.210;2022-09-20T13:58:44;100408.34;;;15.89;47.82
49585;BME280;35491;49.142;9.210;2022-09-20T13:59:45;100408.22;;;15.90;47.62
49585;BME280;35491;49.142;9.210;2022-09-20T14:00:50;100411.03;;;15.97;47.27
49585;BME280;35491;49.142;9.210;2022-09-20T14:01:52;100396.00;;;16.11;47.60
49585;BME280;35491;49.142;9.210;2022-09-20T14:02:56;100409.88;;;16.00;46.98
49585;BME280;35491;49.142;9.210;2022-09-20T14:04:01;100403.75;;;16.14;46.93
49585;BME280;35491;49.142;9.210;2022-09-20T14:05:06;100402.91;;;16.22;46.64
49585;BME280;35491;49.142;9.210;2022-09-20T14:06:17;100405.56;;;16.30;46.53
49585;BME280;35491;49.142;9.210;2022-09-20T14:07:28;100404.88;;;16.36;45.35
49585;BME280;35491;49.142;9.210;2022-09-20T14:08:33;100411.53;;;16.17;44.54
49585;BME280;35491;49.142;9.210;2022-09-20T14:09:42;100414.38;;;16.16;44.63
49585;BME280;35491;49.142;9.210;2022-09-20T14:10:44;100406.63;;;16.21;44.53
49585;BME280;35491;49.142;9.210;2022-09-20T14:11:48;100414.38;;;16.16;43.38
49585;BME280;35491;49.142;9.210;2022-09-20T14:12:53;100412.34;;;16.18;43.80
49585;BME280;35491;49.142;9.210;2022-09-20T14:13:56;100408.28;;;16.30;43.64
49585;BME280;35491;49.142;9.210;2022-09-20T14:15:02;100407.94;;;16.33;43.75
49585;BME280;35491;49.142;9.210;2022-09-20T14:16:08;100401.69;;;16.33;42.92
49585;BME280;35491;49.142;9.210;2022-09-20T14:17:14;100401.25;;;16.13;43.25
49585;BME280;35491;49.142;9.210;2022-09-20T14:18:19;100404.81;;;15.97;42.94
49585;BME280;35491;49.142;9.210;2022-09-20T14:19:23;100403.66;;;15.91;43.16
49585;BME280;35491;49.142;9.210;2022-09-20T14:20:40;100405.81;;;15.96;43.31
49585;BME280;35491;49.142;9.210;2022-09-20T14:21:44;100402.97;;;16.05;43.14
49585;BME280;35491;49.142;9.210;2022-09-20T14:22:45;100407.47;;;16.13;42.90
49585;BME280;35491;49.142;9.210;2022-09-20T14:23:49;100407.63;;;16.20;42.31
49585;BME280;35491;49.142;9.210;2022-09-20T14:26:23;100410.59;;;16.42;42.58
49585;BME280;35491;49.142;9.210;2022-09-20T14:27:25;100405.69;;;16.45;42.53
49585;BME280;35491;49.142;9.210;2022-09-20T14:28:30;100407.19;;;16.48;42.28
49585;BME280;35491;49.142;9.210;2022-09-20T14:32:43;100401.88;;;16.31;41.37
49585;BME280;35491;49.142;9.210;2022-09-20T14:34:05;100404.97;;;16.12;40.76
49585;BME280;35491;49.142;9.210;2022-09-20T14:36:40;100397.75;;;15.96;41.30
49585;BME280;35491;49.142;9.210;2022-09-20T14:37:52;100403.66;;;15.91;41.60
49585;BME280;35491;49.142;9.210;2022-09-20T14:40:39;100403.91;;;16.21;41.52
49585;BME280;35491;49.142;9.210;2022-09-20T14:49:33;100398.19;;;16.16;41.66
49585;BME280;35491;49.142;9.210;2022-09-20T14:50:40;100391.44;;;16.20;41.72
49585;BME280;35491;49.142;9.210;2022-09-20T14:53:26;100396.53;;;16.15;42.07
49585;BME280;35491;49.142;9.210;2022-09-20T14:54:56;100398.72;;;16.11;41.26
49585;BME280;35491;49.142;9.210;2022-09-20T14:56:11;100391.31;;;16.05;41.64
49585;BME280;35491;49.142;9.210;2022-09-20T14:57:15;100395.88;;;16.04;41.57
49585;BME280;35491;49.142;9.210;2022-09-20T14:58:18;100391.41;;;16.28;41.47
49585;BME280;35491;49.142;9.210;2022-09-20T14:59:24;100398.16;;;16.32;41.79
49585;BME280;35491;49.142;9.210;2022-09-20T15:00:44;100395.81;;;16.21;42.31
49585;BME280;35491;49.142;9.210;2022-09-20T15:01:53;100391.13;;;16.15;42.24
49585;BME280;35491;49.142;9.210;2022-09-20T15:03:04;100390.78;;;16.18;42.33
49585;BME280;35491;49.142;9.210;2022-09-20T15:04:08;100394.47;;;16.17;42.54
49585;BME280;35491;49.142;9.210;2022-09-20T15:05:16;100389.75;;;16.19;42.87
49585;BME280;35491;49.142;9.210;2022-09-20T15:06:18;100398.72;;;16.19;43.15
49585;BME280;35491;49.142;9.210;2022-09-20T15:07:22;100394.97;;;16.20;43.47
49585;BME280;35491;49.142;9.210;2022-09-20T15:08:23;100395.69;;;16.14;43.52
49585;BME280;35491;49.142;9.210;2022-09-20T15:09:35;100395.97;;;16.28;43.64
49585;BME280;35491;49.142;9.210;2022-09-20T15:10:40;100392.63;;;16.26;43.74
49585;BME280;35491;49.142;9.210;2022-09-20T15:11:44;100384.63;;;16.41;43.41
49585;BME280;35491;49.142;9.210;2022-09-20T15:12:46;100395.72;;;16.46;43.70
49585;BME280;35491;49.142;9.210;2022-09-20T15:13:50;100399.28;;;16.46;43.35
49585;BME280;35491;49.142;9.210;2022-09-20T15:15:02;100394.38;;;16.50;43.69
49585;BME280;35491;49.142;9.210;2022-09-20T15:16:06;100381.72;;;16.50;43.22
49585;BME280;35491;49.142;9.210;2022-09-20T15:17:12;100392.53;;;16.42;42.87
49585;BME280;35491;49.142;9.210;2022-09-20T15:18:19;100383.44;;;16.43;43.11
49585;BME280;35491;49.142;9.210;2022-09-20T15:19:23;100386.81;;;16.45;43.14
49585;BME280;35491;49.142;9.210;2022-09-20T15:20:25;100386.63;;;16.47;43.49
49585;BME280;35491;49.142;9.210;2022-09-20T15:21:28;100380.81;;;16.66;43.39
49585;BME280;35491;49.142;9.210;2022-09-20T15:22:30;100392.69;;;16.49;42.61
49585;BME280;35491;49.142;9.210;2022-09-20T15:23:33;100386.81;;;16.45;42.13
49585;BME280;35491;49.142;9.210;2022-09-20T15:24:39;100386.31;;;16.42;41.64
49585;BME280;35491;49.142;9.210;2022-09-20T15:25:41;100389.06;;;16.33;41.34
49585;BME280;35491;49.142;9.210;2022-09-20T15:26:45;100396.28;;;16.33;41.54
49585;BME280;35491;49.142;9.210;2022-09-20T15:27:49;100391.41;;;16.28;41.09
49585;BME280;35491;49.142;9.210;2022-09-20T15:28:53;100385.84;;;16.38;41.41